Terminal Aerodrome Forecast
Issued by NWS

Home | Current Version | Previous Version | Graphics & Text | Print | Product List | Glossary On
Versions: 1 2 3 4 5 6 7 8 9 10 11 12 13
360
FTUS43 KEAX 231911 AAA
TAFMKC
TAF AMD
KMKC 231911Z 2319/2418 19011KT P6SM SCT060 SCT250
     FM232300 15008KT P6SM FEW250
     FM241600 18011KT P6SM FEW200=

USA.gov is the U.S. government's official web portal to all federal, state and local government web resources and services.